createdAt,value
2022-12-01T00:01:15.968Z,9.30
2022-12-01T00:03:44.423Z,9.02
2022-12-01T00:06:15.508Z,9.45
2022-12-01T00:09:06.548Z,9.25
2022-12-01T00:11:33.996Z,9.00
2022-12-01T00:14:01.904Z,8.80
2022-12-01T00:16:30.241Z,9.40
2022-12-01T00:18:58.532Z,8.50
2022-12-01T00:21:27.411Z,9.05
2022-12-01T00:23:58.241Z,9.27
2022-12-01T00:26:27.233Z,10.05
2022-12-01T00:28:57.156Z,9.93
2022-12-01T00:31:25.150Z,9.30
2022-12-01T00:33:53.225Z,10.05
2022-12-01T00:36:21.313Z,9.07
2022-12-01T00:38:52.524Z,8.85
2022-12-01T00:41:22.084Z,9.30
2022-12-01T00:43:50.092Z,9.35
2022-12-01T00:46:18.062Z,8.68
2022-12-01T00:48:45.897Z,9.33
2022-12-01T00:51:13.734Z,9.63
2022-12-01T00:53:41.551Z,9.45
2022-12-01T00:56:09.409Z,10.88
2022-12-01T00:58:38.640Z,10.02
2022-12-01T01:01:06.864Z,9.27
2022-12-01T01:03:35.513Z,9.60
2022-12-01T01:06:08.594Z,11.05
2022-12-01T01:08:36.936Z,10.60
2022-12-01T01:11:05.404Z,10.55
2022-12-01T01:13:33.868Z,9.53
2022-12-01T01:16:05.450Z,9.25
2022-12-01T01:18:33.839Z,10.38
2022-12-01T01:21:03.871Z,9.43
2022-12-01T01:23:31.955Z,10.10
2022-12-01T01:26:03.233Z,11.07
2022-12-01T01:28:31.602Z,9.60
2022-12-01T01:30:59.881Z,9.90
2022-12-01T01:33:29.173Z,9.80
2022-12-01T01:36:00.042Z,10.45
2022-12-01T01:38:28.047Z,10.03
2022-12-01T01:40:56.051Z,10.02
2022-12-01T01:43:42.043Z,10.18
2022-12-01T01:46:12.181Z,9.82
2022-12-01T01:48:43.415Z,9.13
2022-12-01T01:51:13.304Z,9.37
2022-12-01T01:53:41.740Z,9.98
2022-12-01T01:56:10.476Z,9.63
2022-12-01T01:58:39.920Z,9.38
2022-12-01T02:01:08.508Z,9.98
2022-12-01T02:03:39.786Z,9.17
2022-12-01T02:06:10.682Z,9.93
2022-12-01T02:08:39.032Z,9.20
2022-12-01T02:11:31.603Z,9.40
2022-12-01T02:14:09.425Z,8.73
2022-12-01T02:16:45.315Z,9.10
2022-12-01T02:19:37.925Z,8.40
2022-12-01T02:22:20.136Z,7.45
2022-12-01T02:25:03.927Z,9.05
2022-12-01T02:27:50.352Z,9.52
2022-12-01T02:30:20.347Z,8.20
2022-12-01T02:33:05.333Z,9.18
2022-12-01T02:35:39.231Z,9.50
2022-12-01T02:38:16.196Z,8.43
2022-12-01T02:40:51.533Z,6.45
2022-12-01T02:43:28.426Z,8.67
2022-12-01T02:46:01.354Z,7.03
2022-12-01T02:48:33.477Z,6.55
2022-12-01T02:51:07.395Z,6.57
2022-12-01T02:53:35.821Z,7.07
2022-12-01T02:56:08.892Z,7.63
2022-12-01T02:58:37.015Z,7.10
2022-12-01T03:01:27.571Z,5.88
2022-12-01T03:04:04.578Z,6.10
2022-12-01T03:06:43.187Z,6.60
2022-12-01T03:09:18.827Z,6.30
2022-12-01T03:11:57.456Z,6.82
2022-12-01T03:14:35.406Z,5.95
2022-12-01T03:17:09.075Z,6.35
2022-12-01T03:19:44.280Z,5.97
2022-12-01T03:22:15.182Z,5.63
2022-12-01T03:24:47.471Z,6.28
2022-12-01T03:27:17.642Z,6.53
2022-12-01T03:29:49.714Z,5.75
2022-12-01T03:32:23.766Z,5.90
2022-12-01T03:34:57.279Z,5.00
2022-12-01T03:37:31.692Z,5.63
2022-12-01T03:40:01.764Z,5.72
2022-12-01T03:42:36.860Z,5.53
2022-12-01T03:45:08.537Z,5.15
2022-12-01T03:47:37.784Z,5.53
2022-12-01T03:50:13.226Z,5.75
2022-12-01T03:52:49.544Z,5.25
2022-12-01T03:55:21.647Z,6.15
2022-12-01T03:57:54.879Z,5.63
2022-12-01T04:00:23.300Z,5.57
2022-12-01T04:02:56.697Z,6.03
2022-12-01T04:05:26.524Z,5.22
2022-12-01T04:07:54.649Z,5.63
2022-12-01T04:10:22.876Z,5.30
2022-12-01T04:12:49.972Z,5.87
2022-12-01T04:15:18.207Z,5.43
2022-12-01T04:17:46.070Z,6.18
2022-12-01T04:20:15.423Z,5.43
2022-12-01T04:22:45.038Z,5.53
2022-12-01T04:25:12.950Z,5.17
2022-12-01T04:27:40.919Z,5.70
2022-12-01T04:30:10.620Z,5.35
2022-12-01T04:32:39.891Z,5.82
2022-12-01T04:35:08.664Z,5.22
2022-12-01T04:37:36.459Z,5.47
2022-12-01T04:40:07.225Z,5.10
2022-12-01T04:42:35.022Z,6.35
2022-12-01T04:45:02.851Z,5.28
2022-12-01T04:47:30.693Z,5.95
2022-12-01T04:49:58.481Z,5.63
2022-12-01T04:52:29.476Z,5.03
2022-12-01T04:55:01.475Z,6.22
2022-12-01T04:57:30.654Z,6.47
2022-12-01T04:59:58.476Z,5.57
2022-12-01T05:02:26.413Z,5.47
2022-12-01T05:04:54.323Z,6.00
2022-12-01T05:07:22.163Z,4.70
2022-12-01T05:09:50.350Z,5.68
2022-12-01T05:12:18.672Z,5.70
2022-12-01T05:14:48.969Z,5.93
2022-12-01T05:17:16.795Z,7.18
2022-12-01T05:20:01.946Z,7.00
2022-12-01T05:22:57.245Z,6.35
2022-12-01T05:25:17.768Z,6.57
2022-12-01T05:27:45.644Z,5.83
2022-12-01T05:30:15.046Z,6.25
2022-12-01T05:32:42.887Z,5.97
2022-12-01T05:35:10.967Z,6.32
2022-12-01T05:37:38.739Z,6.50
2022-12-01T05:40:08.490Z,6.50
2022-12-01T05:42:36.337Z,6.32
2022-12-01T05:45:04.346Z,7.18
2022-12-01T05:47:33.522Z,6.60
2022-12-01T05:50:05.583Z,6.32
2022-12-01T05:52:34.526Z,6.87
2022-12-01T05:55:02.468Z,6.40
2022-12-01T05:57:30.345Z,7.30
2022-12-01T05:59:58.197Z,6.47
2022-12-01T06:02:27.172Z,7.80
2022-12-01T06:04:56.397Z,7.80
2022-12-01T06:07:25.939Z,7.13
2022-12-01T06:09:54.294Z,6.82
2022-12-01T06:12:22.137Z,7.20
2022-12-01T06:14:49.951Z,7.50
2022-12-01T06:17:17.823Z,7.00
2022-12-01T06:19:47.825Z,7.68
2022-12-01T06:22:17.465Z,6.40
2022-12-01T06:24:45.275Z,6.68
2022-12-01T06:27:13.058Z,8.00
2022-12-01T06:29:48.007Z,8.50
2022-12-01T06:32:15.880Z,8.07
2022-12-01T06:34:43.863Z,6.10
2022-12-01T06:37:11.808Z,7.57
2022-12-01T06:39:41.013Z,7.05
2022-12-01T06:42:08.847Z,7.00
2022-12-01T06:44:36.683Z,7.82
2022-12-01T06:47:04.566Z,6.95
2022-12-01T06:49:32.396Z,6.68
2022-12-01T06:52:01.176Z,6.65
2022-12-01T06:54:29.068Z,8.13
2022-12-01T06:56:58.534Z,6.70
2022-12-01T06:59:27.096Z,6.65
2022-12-01T07:01:56.400Z,7.15
2022-12-01T07:04:24.534Z,6.68
2022-12-01T07:06:52.356Z,8.30
2022-12-01T07:09:20.294Z,6.82
2022-12-01T07:11:48.107Z,7.45
2022-12-01T07:14:24.319Z,8.00
2022-12-01T07:16:52.246Z,8.00
2022-12-01T07:19:20.127Z,7.20
2022-12-01T07:21:48.178Z,7.40
2022-12-01T07:24:16.088Z,7.63
2022-12-01T07:26:44.539Z,8.43
2022-12-01T07:29:12.961Z,7.50
2022-12-01T07:31:42.182Z,7.90
2022-12-01T07:34:13.470Z,8.13
2022-12-01T07:36:41.271Z,6.55
2022-12-01T07:39:10.029Z,6.63
2022-12-01T07:41:37.812Z,6.80
2022-12-01T07:44:05.890Z,7.67
2022-12-01T07:46:33.983Z,7.65
2022-12-01T07:49:06.737Z,7.47
2022-12-01T07:51:34.935Z,6.35
2022-12-01T07:54:03.688Z,7.15
2022-12-01T07:56:31.965Z,6.73
2022-12-01T07:58:59.804Z,6.63
2022-12-01T08:01:27.825Z,6.93
2022-12-01T08:03:57.155Z,6.47
2022-12-01T08:06:27.406Z,7.43
2022-12-01T08:08:55.217Z,6.27
2022-12-01T08:11:25.162Z,6.78
2022-12-01T08:13:53.888Z,7.07
2022-12-01T08:16:24.021Z,6.70
2022-12-01T08:18:52.429Z,6.47
2022-12-01T08:21:24.396Z,6.93
2022-12-01T08:23:56.456Z,6.72
2022-12-01T08:26:25.925Z,5.35
2022-12-01T08:28:53.716Z,6.60
2022-12-01T08:31:25.259Z,7.00
2022-12-01T08:33:53.863Z,7.40
2022-12-01T08:36:22.746Z,6.32
2022-12-01T08:38:52.556Z,7.13
2022-12-01T08:41:22.269Z,6.50
2022-12-01T08:43:57.810Z,6.97
2022-12-01T08:46:26.865Z,6.20
2022-12-01T08:48:57.516Z,5.47
2022-12-01T08:51:26.235Z,6.10
2022-12-01T08:53:54.136Z,6.15
2022-12-01T08:56:25.593Z,6.72
2022-12-01T08:58:54.964Z,6.43
2022-12-01T09:01:23.376Z,7.03
2022-12-01T09:04:05.233Z,6.75
2022-12-01T09:06:35.007Z,6.60
2022-12-01T09:09:02.898Z,6.55
2022-12-01T09:11:32.114Z,6.17
2022-12-01T09:14:00.347Z,7.03
2022-12-01T09:16:28.246Z,7.07
2022-12-01T09:18:56.606Z,6.18
2022-12-01T09:21:27.552Z,7.10
2022-12-01T09:23:55.889Z,6.83
2022-12-01T09:26:24.631Z,6.50
2022-12-01T09:28:57.172Z,6.20
2022-12-01T09:31:25.349Z,5.95
2022-12-01T09:33:56.563Z,6.63
2022-12-01T09:36:24.736Z,6.33
2022-12-01T09:38:52.780Z,7.18
2022-12-01T09:41:24.154Z,6.28
2022-12-01T09:43:59.224Z,6.50
2022-12-01T09:46:33.300Z,6.38
2022-12-01T09:49:04.249Z,5.90
2022-12-01T09:51:36.211Z,6.85
2022-12-01T09:54:04.868Z,6.88
2022-12-01T09:56:37.622Z,6.60
2022-12-01T09:59:12.299Z,7.15
2022-12-01T10:01:44.513Z,6.40
2022-12-01T10:04:19.131Z,6.75
2022-12-01T10:06:52.913Z,8.30
2022-12-01T10:09:25.576Z,6.40
2022-12-01T10:11:59.222Z,6.97
2022-12-01T10:14:33.775Z,6.80
2022-12-01T10:17:10.777Z,6.95
2022-12-01T10:19:46.013Z,7.22
2022-12-01T10:22:40.952Z,6.80
2022-12-01T10:25:21.272Z,6.28
2022-12-01T10:28:00.176Z,6.53
2022-12-01T10:30:29.650Z,7.05
2022-12-01T10:33:02.492Z,7.10
2022-12-01T10:35:36.172Z,6.45
2022-12-01T10:38:06.984Z,6.50
2022-12-01T10:40:35.338Z,7.03
2022-12-01T10:43:04.020Z,7.47
2022-12-01T10:45:36.810Z,6.97
2022-12-01T10:48:17.142Z,7.43
2022-12-01T10:50:46.307Z,7.57
2022-12-01T10:53:38.136Z,6.60
2022-12-01T10:56:11.020Z,6.35
2022-12-01T10:58:45.331Z,6.57
2022-12-01T11:01:21.531Z,7.15
2022-12-01T11:03:56.977Z,6.70
2022-12-01T11:06:29.014Z,7.07
2022-12-01T11:08:58.987Z,6.38
2022-12-01T11:11:32.747Z,6.88
2022-12-01T11:14:03.083Z,6.95
2022-12-01T11:16:43.945Z,6.10
2022-12-01T11:19:26.854Z,7.50
2022-12-01T11:21:57.124Z,5.80
2022-12-01T11:24:42.153Z,6.40
2022-12-01T11:27:17.432Z,6.20
2022-12-01T11:29:47.500Z,6.88
2022-12-01T11:32:22.565Z,6.30
2022-12-01T11:34:53.867Z,7.20
2022-12-01T11:37:25.601Z,7.38
2022-12-01T11:39:56.400Z,6.95
2022-12-01T11:42:27.438Z,7.72
2022-12-01T11:44:58.318Z,6.20
2022-12-01T11:47:29.150Z,6.65
2022-12-01T11:49:58.711Z,6.95
2022-12-01T11:52:30.579Z,7.00
2022-12-01T11:55:05.562Z,7.50
2022-12-01T11:57:38.649Z,6.77
2022-12-01T12:00:14.963Z,6.80
2022-12-01T12:02:54.164Z,7.18
2022-12-01T12:05:40.878Z,6.90
2022-12-01T12:08:18.330Z,6.55
2022-12-01T12:10:54.530Z,7.77
2022-12-01T12:13:51.694Z,6.22
2022-12-01T12:16:30.296Z,6.50
2022-12-01T12:19:18.225Z,7.75
2022-12-01T12:21:56.132Z,6.40
2022-12-01T12:24:38.212Z,7.03
2022-12-01T12:27:15.060Z,7.20
2022-12-01T12:29:59.844Z,7.05
2022-12-01T12:32:41.601Z,6.25
2022-12-01T12:35:24.006Z,6.70
2022-12-01T12:38:01.369Z,7.50
2022-12-01T12:40:40.047Z,7.57
2022-12-01T12:43:21.990Z,7.45
2022-12-01T12:46:01.388Z,7.03
2022-12-01T12:48:57.299Z,5.65
2022-12-01T12:51:36.544Z,7.20
2022-12-01T12:54:14.917Z,7.30
2022-12-01T12:56:47.489Z,7.25
2022-12-01T12:59:21.392Z,8.10
2022-12-01T13:01:56.287Z,6.57
2022-12-01T13:04:31.817Z,7.40
2022-12-01T13:07:05.063Z,6.65
2022-12-01T13:09:39.963Z,6.85
2022-12-01T13:12:15.734Z,7.30
2022-12-01T13:14:48.240Z,7.10
2022-12-01T13:17:22.567Z,6.87
2022-12-01T13:19:51.040Z,6.70
2022-12-01T13:22:25.742Z,6.75
2022-12-01T13:24:53.525Z,6.38
2022-12-01T13:27:24.485Z,7.30
2022-12-01T13:29:54.802Z,7.73
2022-12-01T13:32:32.968Z,7.88
2022-12-01T13:35:02.669Z,6.82
2022-12-01T13:37:34.234Z,7.65
2022-12-01T13:40:10.522Z,6.82
2022-12-01T13:42:39.885Z,7.50
2022-12-01T13:45:19.067Z,6.82
2022-12-01T13:47:54.332Z,7.10
2022-12-01T13:50:57.095Z,6.68
2022-12-01T13:53:36.673Z,8.27
2022-12-01T13:56:39.254Z,6.70
2022-12-01T13:59:42.936Z,6.53
2022-12-01T14:02:20.844Z,7.93
2022-12-01T14:04:49.584Z,6.93
2022-12-01T14:07:38.059Z,6.90
2022-12-01T14:10:26.963Z,7.57
2022-12-01T14:12:58.860Z,6.22
2022-12-01T14:15:33.231Z,7.38
2022-12-01T14:18:05.517Z,7.63
2022-12-01T14:20:37.774Z,7.95
2022-12-01T14:23:15.090Z,6.93
2022-12-01T14:25:57.520Z,8.52
2022-12-01T14:29:11.465Z,7.03
2022-12-01T14:32:22.669Z,7.10
2022-12-01T14:35:12.423Z,6.55
2022-12-01T14:37:48.588Z,7.67
2022-12-01T14:40:31.331Z,7.57
2022-12-01T14:43:19.943Z,6.80
2022-12-01T14:45:56.599Z,7.55
2022-12-01T14:48:29.116Z,8.18
2022-12-01T14:51:13.256Z,7.70
2022-12-01T14:53:45.924Z,7.72
2022-12-01T14:56:17.403Z,8.00
2022-12-01T14:58:55.603Z,6.78
2022-12-01T15:01:24.460Z,7.50
2022-12-01T15:03:55.677Z,7.40
2022-12-01T15:06:25.477Z,7.32
2022-12-01T15:09:32.242Z,7.75
2022-12-01T15:11:56.962Z,7.90
2022-12-01T15:14:32.951Z,7.55
2022-12-01T15:17:02.577Z,7.13
2022-12-01T15:19:33.180Z,7.07
2022-12-01T15:22:05.559Z,7.75
2022-12-01T15:24:34.155Z,7.57
2022-12-01T15:27:04.190Z,7.97
2022-12-01T15:29:38.697Z,8.43
2022-12-01T15:32:09.519Z,7.13
2022-12-01T15:34:39.539Z,7.55
2022-12-01T15:37:12.237Z,7.97
2022-12-01T15:39:44.899Z,7.43
2022-12-01T15:42:23.443Z,8.27
2022-12-01T15:45:00.997Z,7.03
2022-12-01T15:47:36.897Z,7.47
2022-12-01T15:50:06.570Z,8.13
2022-12-01T15:52:43.426Z,8.52
2022-12-01T15:55:25.174Z,7.10
2022-12-01T15:57:53.153Z,7.72
2022-12-01T16:00:23.478Z,7.90
2022-12-01T16:02:53.834Z,8.13
2022-12-01T16:05:25.746Z,8.02
2022-12-01T16:10:41.586Z,7.57
2022-12-01T16:13:42.889Z,9.40
2022-12-01T16:16:37.073Z,8.25
2022-12-01T16:19:22.726Z,8.27
2022-12-01T16:21:53.444Z,7.30
2022-12-01T16:24:24.815Z,8.13
2022-12-01T16:26:55.757Z,8.15
2022-12-01T16:29:25.801Z,7.95
2022-12-01T16:32:19.308Z,7.82
2022-12-01T16:34:56.799Z,8.27
2022-12-01T16:37:24.748Z,8.07
2022-12-01T16:39:53.501Z,9.50
2022-12-01T16:42:22.398Z,8.32
2022-12-01T16:44:51.570Z,7.45
2022-12-01T16:47:23.023Z,8.37
2022-12-01T16:49:50.871Z,7.75
2022-12-01T16:52:43.552Z,9.02
2022-12-01T16:55:23.779Z,8.25
2022-12-01T16:57:51.618Z,8.27
2022-12-01T17:00:20.233Z,9.33
2022-12-01T17:02:49.518Z,9.65
2022-12-01T17:05:17.758Z,9.70
2022-12-01T17:07:46.556Z,8.88
2022-12-01T17:10:15.190Z,9.35
2022-12-01T17:12:43.011Z,8.20
2022-12-01T17:15:11.505Z,9.23
2022-12-01T17:17:39.671Z,8.98
2022-12-01T17:20:10.398Z,8.07
2022-12-01T17:22:38.747Z,8.73
2022-12-01T17:25:09.470Z,8.60
2022-12-01T17:27:37.642Z,8.93
2022-12-01T17:30:06.390Z,8.90
2022-12-01T17:32:34.196Z,8.38
2022-12-01T17:35:02.031Z,8.95
2022-12-01T17:37:31.556Z,8.97
2022-12-01T17:39:59.429Z,9.15
2022-12-01T17:42:27.280Z,9.30
2022-12-01T17:44:55.122Z,8.93
2022-12-01T17:47:23.978Z,9.75
2022-12-01T17:49:51.897Z,9.47
2022-12-01T17:52:22.180Z,10.05
2022-12-01T17:54:58.673Z,10.25
2022-12-01T17:57:26.599Z,8.75
2022-12-01T17:59:55.672Z,9.20
2022-12-01T18:02:23.747Z,8.70
2022-12-01T18:04:51.915Z,8.88
2022-12-01T18:07:19.868Z,9.75
2022-12-01T18:09:47.689Z,9.35
2022-12-01T18:12:16.855Z,8.73
2022-12-01T18:14:44.750Z,8.70
2022-12-01T18:17:12.514Z,9.32
2022-12-01T18:19:40.506Z,9.38
2022-12-01T18:22:08.336Z,10.57
2022-12-01T18:24:36.305Z,9.48
2022-12-01T18:27:04.195Z,10.27
2022-12-01T18:29:33.971Z,9.65
2022-12-01T18:32:02.244Z,11.07
2022-12-01T18:34:30.401Z,9.40
2022-12-01T18:36:58.344Z,10.80
2022-12-01T18:39:26.150Z,10.30
2022-12-01T18:41:54.140Z,9.80
2022-12-01T18:44:22.085Z,9.75
2022-12-01T18:46:51.542Z,9.13
2022-12-01T18:49:20.108Z,8.98
2022-12-01T18:51:47.940Z,8.17
2022-12-01T18:54:16.775Z,8.50
2022-12-01T18:56:45.944Z,9.35
2022-12-01T18:59:16.877Z,10.40
2022-12-01T19:01:46.450Z,9.85
2022-12-01T19:04:17.077Z,9.40
2022-12-01T19:06:46.666Z,9.75
2022-12-01T19:09:16.494Z,9.32
2022-12-01T19:11:44.433Z,10.32
2022-12-01T19:14:15.664Z,10.25
2022-12-01T19:16:43.613Z,8.37
2022-12-01T19:19:11.985Z,9.45
2022-12-01T19:21:42.779Z,10.43
2022-12-01T19:24:10.606Z,9.48
2022-12-01T19:26:38.782Z,9.50
2022-12-01T19:29:06.614Z,10.20
2022-12-01T19:31:34.532Z,8.60
2022-12-01T19:34:03.667Z,8.75
2022-12-01T19:36:31.516Z,10.13
2022-12-01T19:39:03.956Z,8.63
2022-12-01T19:41:33.740Z,8.60
2022-12-01T19:44:01.585Z,9.68
2022-12-01T19:46:29.383Z,8.40
2022-12-01T19:49:00.134Z,8.90
2022-12-01T19:51:30.030Z,8.88
2022-12-01T19:53:58.147Z,8.27
2022-12-01T19:56:28.411Z,9.07
2022-12-01T19:58:57.271Z,9.15
2022-12-01T20:01:25.598Z,9.13
2022-12-01T20:03:54.689Z,9.50
2022-12-01T20:06:25.099Z,8.47
2022-12-01T20:08:53.749Z,9.27
2022-12-01T20:11:21.583Z,9.95
2022-12-01T20:13:51.480Z,8.57
2022-12-01T20:16:21.795Z,7.78
2022-12-01T20:18:50.418Z,8.80
2022-12-01T20:21:20.548Z,8.07
2022-12-01T20:23:51.013Z,9.18
2022-12-01T20:26:20.351Z,9.00
2022-12-01T20:28:51.908Z,8.40
2022-12-01T20:31:22.244Z,7.50
2022-12-01T20:33:53.085Z,8.07
2022-12-01T20:36:22.198Z,9.02
2022-12-01T20:38:50.144Z,7.90
2022-12-01T20:41:18.515Z,7.80
2022-12-01T20:43:46.446Z,7.20
2022-12-01T20:46:16.222Z,7.72
2022-12-01T20:48:44.101Z,7.63
2022-12-01T20:51:14.213Z,6.95
2022-12-01T20:53:54.452Z,7.75
2022-12-01T20:56:27.754Z,7.77
2022-12-01T20:58:55.708Z,8.07
2022-12-01T21:01:25.074Z,7.45
2022-12-01T21:03:54.038Z,6.70
2022-12-01T21:06:22.686Z,8.27
2022-12-01T21:08:51.851Z,6.10
2022-12-01T21:11:46.598Z,6.63
2022-12-01T21:14:16.614Z,5.65
2022-12-01T21:16:49.184Z,6.40
2022-12-01T21:19:23.650Z,6.82
2022-12-01T21:21:51.482Z,6.03
2022-12-01T21:24:22.355Z,6.43
2022-12-01T21:26:54.475Z,6.72
2022-12-01T21:29:25.856Z,7.15
2022-12-01T21:31:59.622Z,7.53
2022-12-01T21:34:29.631Z,6.43
2022-12-01T21:37:01.668Z,8.43
2022-12-01T21:39:30.957Z,7.35
2022-12-01T21:42:08.113Z,8.07
2022-12-01T21:44:39.393Z,8.43
2022-12-01T21:47:20.079Z,8.63
2022-12-01T21:49:51.957Z,8.15
2022-12-01T21:52:22.835Z,9.00
2022-12-01T21:54:51.320Z,8.85
2022-12-01T21:57:32.537Z,8.55
2022-12-01T22:00:24.923Z,8.90
2022-12-01T22:03:05.135Z,8.25
2022-12-01T22:05:38.856Z,8.52
2022-12-01T22:08:18.723Z,7.80
2022-12-01T22:10:56.802Z,8.40
2022-12-01T22:13:28.438Z,8.10
2022-12-01T22:15:56.291Z,8.30
2022-12-01T22:18:30.623Z,8.32
2022-12-01T22:20:59.877Z,8.05
2022-12-01T22:23:33.699Z,8.55
2022-12-01T22:26:01.781Z,7.97
2022-12-01T22:28:29.841Z,7.43
2022-12-01T22:30:57.875Z,7.30
2022-12-01T22:33:29.963Z,7.65
2022-12-01T22:35:58.007Z,9.10
2022-12-01T22:38:33.492Z,8.00
2022-12-01T22:41:05.642Z,9.40
2022-12-01T22:43:52.861Z,8.60
2022-12-01T22:46:36.285Z,8.10
2022-12-01T22:49:19.303Z,8.02
2022-12-01T22:51:49.453Z,7.90
2022-12-01T22:54:27.779Z,8.55
2022-12-01T22:57:04.052Z,9.38
2022-12-01T22:59:35.347Z,8.40
2022-12-01T23:02:16.519Z,7.65
2022-12-01T23:04:49.105Z,7.20
2022-12-01T23:07:34.650Z,8.40
2022-12-01T23:10:13.085Z,9.13
2022-12-01T23:12:41.205Z,6.60
2022-12-01T23:15:21.536Z,7.80
2022-12-01T23:17:50.155Z,6.23
2022-12-01T23:20:31.256Z,6.85
2022-12-01T23:23:00.717Z,4.65
2022-12-01T23:25:29.618Z,6.38
2022-12-01T23:28:01.181Z,4.53
2022-12-01T23:30:29.427Z,5.37
2022-12-01T23:33:17.368Z,4.97
2022-12-01T23:35:51.886Z,5.30
2022-12-01T23:38:23.245Z,4.00
2022-12-01T23:40:53.626Z,4.38
2022-12-01T23:43:24.699Z,5.00
2022-12-01T23:46:02.641Z,4.93
2022-12-01T23:48:35.363Z,4.90
2022-12-01T23:51:05.378Z,5.93
2022-12-01T23:53:34.218Z,5.78
2022-12-01T23:56:06.722Z,6.23
2022-12-01T23:58:35.435Z,5.60
